Time;durP1;ratioP1;P1;durP2;ratioP2;P2;SDS_P1;SDS_P2;PMS_P1;PMS_P2;Temp;Humidity;BMP_temperature;BMP_pressure;BME280_temperature;BME280_humidity;BME280_pressure;Samples;Min_cycle;Max_cycle;Signal;HPM_P1;HPM_P2
2022/06/12 00:00:27;;;;;;;17.70;3.50;;;15.20;70.00;;;;;;5001424;28;20050;-76
2022/06/12 00:02:53;;;;;;;14.10;3.42;;;15.20;70.40;;;;;;5007973;28;20492;-76
2022/06/12 00:05:22;;;;;;;15.27;4.30;;;15.10;70.50;;;;;;4994247;28;20069;-77
2022/06/12 00:07:47;;;;;;;11.38;3.38;;;15.10;70.60;;;;;;5006146;28;20026;-77
2022/06/12 00:10:14;;;;;;;15.40;3.58;;;15.10;70.70;;;;;;4998141;28;20041;-76
2022/06/12 00:12:42;;;;;;;12.30;3.13;;;15.10;70.80;;;;;;5006347;28;20042;-76
2022/06/12 00:15:10;;;;;;;15.82;3.40;;;15.00;71.00;;;;;;5006567;28;20428;-76
2022/06/12 00:17:38;;;;;;;11.20;3.15;;;15.00;71.40;;;;;;5014162;28;20038;-76
2022/06/12 00:20:05;;;;;;;15.45;3.42;;;15.00;71.40;;;;;;5008084;28;20034;-76
2022/06/12 00:22:30;;;;;;;15.35;3.38;;;14.90;71.40;;;;;;5007809;28;20048;-76
2022/06/12 00:24:56;;;;;;;15.57;4.13;;;14.90;71.50;;;;;;5010963;28;20038;-76
2022/06/12 00:27:22;;;;;;;15.00;3.70;;;14.90;71.70;;;;;;5012590;28;20133;-76
2022/06/12 00:29:48;;;;;;;12.65;3.38;;;14.90;71.90;;;;;;5004618;28;20044;-77
2022/06/12 00:32:16;;;;;;;13.27;2.97;;;14.80;72.00;;;;;;5009542;28;20040;-76
2022/06/12 00:34:46;;;;;;;16.42;3.22;;;14.70;72.30;;;;;;5007642;28;20451;-76
2022/06/12 00:37:13;;;;;;;14.32;3.67;;;14.70;72.50;;;;;;5008959;28;20049;-76
2022/06/12 00:39:41;;;;;;;14.68;3.72;;;14.70;72.70;;;;;;5006384;28;20068;-76
2022/06/12 00:42:09;;;;;;;16.60;3.47;;;14.70;72.90;;;;;;5007962;28;20774;-77
2022/06/12 00:44:42;;;;;;;16.20;3.65;;;14.60;73.20;;;;;;5003276;28;20081;-76
2022/06/12 00:47:11;;;;;;;12.80;3.13;;;14.60;73.30;;;;;;5007902;28;20033;-77
2022/06/12 00:49:41;;;;;;;13.65;3.75;;;14.50;73.60;;;;;;5002910;28;20040;-76
2022/06/12 00:52:09;;;;;;;15.05;3.63;;;14.50;73.80;;;;;;5008199;28;20060;-76
2022/06/12 00:54:37;;;;;;;18.48;3.70;;;14.50;73.90;;;;;;5007645;28;20374;-76
2022/06/12 00:57:06;;;;;;;14.90;3.83;;;14.50;73.90;;;;;;5002785;28;20042;-76
2022/06/12 00:59:40;;;;;;;18.13;3.95;;;14.50;74.10;;;;;;5002306;28;20041;-76
2022/06/12 01:02:11;;;;;;;17.15;3.97;;;14.50;74.30;;;;;;5010203;28;20401;-75
2022/06/12 01:07:23;;;;;;;;;;;14.40;74.60;;;;;;5004928;28;20437;-77
2022/06/12 01:09:52;;;;;;;12.32;3.28;;;14.40;74.70;;;;;;5008821;28;19913;-77
2022/06/12 01:12:22;;;;;;;17.23;4.35;;;14.30;74.90;;;;;;4997296;28;20494;-75
2022/06/12 01:15:00;;;;;;;15.63;4.63;;;14.30;75.00;;;;;;5001579;28;20089;-77
2022/06/12 01:17:27;;;;;;;12.93;3.88;;;14.30;75.10;;;;;;5003353;28;20417;-76
2022/06/12 01:20:01;;;;;;;11.65;3.53;;;14.30;75.20;;;;;;5002148;28;20428;-76
2022/06/12 01:23:04;;;;;;;18.23;4.27;;;14.30;75.20;;;;;;5010242;28;20457;-76
2022/06/12 01:25:56;;;;;;;13.95;3.40;;;14.30;75.20;;;;;;5000968;28;20112;-76
2022/06/12 01:28:25;;;;;;;15.25;3.90;;;14.20;75.30;;;;;;4970204;28;20060;-76
2022/06/12 01:31:01;;;;;;;13.23;3.92;;;14.20;75.50;;;;;;5004423;28;20049;-76
2022/06/12 01:33:45;;;;;;;15.55;3.75;;;14.20;75.80;;;;;;5005093;28;20079;-76
2022/06/12 01:36:26;;;;;;;12.98;4.18;;;14.10;75.80;;;;;;4996998;28;20038;-77
2022/06/12 01:39:05;;;;;;;15.73;4.15;;;14.20;75.80;;;;;;5003805;28;20382;-76
2022/06/12 01:42:03;;;;;;;14.23;4.25;;;14.20;75.90;;;;;;5001145;28;20026;-76
2022/06/12 01:44:39;;;;;;;14.35;4.35;;;14.10;76.00;;;;;;5003022;28;20034;-76
2022/06/12 01:47:24;;;;;;;16.77;4.65;;;14.10;75.90;;;;;;5006205;28;20076;-76
2022/06/12 01:50:02;;;;;;;14.02;4.30;;;14.20;75.90;;;;;;5006411;28;20092;-76
2022/06/12 01:52:59;;;;;;;14.45;4.13;;;14.10;75.70;;;;;;5002730;28;20466;-76
2022/06/12 01:55:29;;;;;;;16.15;3.78;;;14.10;76.00;;;;;;5009039;28;20079;-76
2022/06/12 01:58:06;;;;;;;12.15;3.80;;;14.10;76.10;;;;;;5001298;28;20055;-76
2022/06/12 02:00:33;;;;;;;18.15;4.68;;;14.10;76.10;;;;;;5006170;28;20110;-76
2022/06/12 02:03:01;;;;;;;14.77;4.70;;;14.10;76.30;;;;;;5003556;28;20366;-76
2022/06/12 02:05:43;;;;;;;14.77;4.78;;;14.10;76.30;;;;;;5005534;28;20386;-76
2022/06/12 02:08:24;;;;;;;13.82;4.70;;;14.10;76.50;;;;;;4997023;28;20037;-77
2022/06/12 02:13:10;;;;;;;17.23;4.47;;;14.00;76.50;;;;;;4999770;28;20022;-76
2022/06/12 02:13:47;;;;;;;13.98;4.05;;;14.00;76.70;;;;;;4996685;28;20064;-76
2022/06/12 02:16:17;;;;;;;15.02;4.45;;;14.00;76.70;;;;;;5006703;28;20037;-76
2022/06/12 02:18:52;;;;;;;13.32;4.30;;;13.90;76.80;;;;;;5011053;28;20029;-76
2022/06/12 02:21:33;;;;;;;17.33;4.70;;;13.90;76.90;;;;;;5004756;28;20454;-76
2022/06/12 02:24:04;;;;;;;15.25;4.93;;;13.90;76.90;;;;;;5001969;28;20034;-76
2022/06/12 02:26:36;;;;;;;16.55;4.53;;;13.80;77.00;;;;;;5006663;28;20379;-76
2022/06/12 02:29:08;;;;;;;19.98;5.78;;;13.70;77.30;;;;;;5006589;28;20076;-75
2022/06/12 02:31:40;;;;;;;13.20;4.53;;;13.70;77.40;;;;;;5005356;28;20038;-76
2022/06/12 02:34:15;;;;;;;16.77;5.07;;;13.70;77.70;;;;;;5000262;28;20038;-76
2022/06/12 02:36:48;;;;;;;15.48;5.07;;;13.60;77.80;;;;;;5008458;28;20038;-75
2022/06/12 02:39:19;;;;;;;15.32;5.20;;;13.60;78.10;;;;;;5006445;28;20034;-76
2022/06/12 02:41:58;;;;;;;17.02;4.93;;;13.60;78.10;;;;;;5006676;28;20037;-76
2022/06/12 02:44:31;;;;;;;15.93;4.90;;;13.60;78.30;;;;;;5002860;28;20034;-76
2022/06/12 02:47:08;;;;;;;12.85;4.70;;;13.60;78.40;;;;;;5006059;28;20080;-76
2022/06/12 02:49:37;;;;;;;18.63;5.15;;;13.70;78.40;;;;;;5022576;28;21179;-76
2022/06/12 02:52:12;;;;;;;17.83;4.82;;;13.70;78.50;;;;;;5020482;28;20030;-76
2022/06/12 02:55:18;;;;;;;16.92;4.95;;;13.60;78.40;;;;;;5014059;28;20038;-77
2022/06/12 02:58:04;;;;;;;16.15;5.38;;;13.60;78.50;;;;;;4990083;28;20117;-75
2022/06/12 03:00:34;;;;;;;15.50;5.45;;;13.60;78.60;;;;;;4984964;28;20038;-77
2022/06/12 03:03:26;;;;;;;14.82;5.32;;;13.60;78.60;;;;;;4993255;28;20113;-75
2022/06/12 03:05:57;;;;;;;16.67;5.20;;;13.60;78.90;;;;;;4995094;28;20049;-76
2022/06/12 03:08:58;;;;;;;15.20;5.15;;;13.60;78.70;;;;;;4988640;28;20406;-76
2022/06/12 03:11:29;;;;;;;17.80;5.88;;;13.50;79.00;;;;;;4984313;28;20080;-75
2022/06/12 03:13:57;;;;;;;17.42;5.47;;;13.40;79.10;;;;;;5024084;28;20344;-74
2022/06/12 03:16:27;;;;;;;17.67;5.10;;;13.40;79.40;;;;;;5025796;28;20034;-76
2022/06/12 03:19:23;;;;;;;16.42;6.03;;;13.30;79.40;;;;;;5021453;28;20041;-76
2022/06/12 03:21:55;;;;;;;14.77;5.32;;;13.30;79.50;;;;;;5009086;28;20034;-76
2022/06/12 03:25:02;;;;;;;18.10;6.22;;;13.30;79.80;;;;;;5006084;28;20030;-75
2022/06/12 03:27:49;;;;;;;18.77;6.60;;;13.30;80.00;;;;;;4994622;28;20145;-74
2022/06/12 03:30:30;;;;;;;14.82;5.95;;;13.30;80.10;;;;;;5005667;28;20563;-76
2022/06/12 03:33:18;;;;;;;22.33;6.97;;;13.30;80.10;;;;;;5016316;28;20065;-77
2022/06/12 03:36:18;;;;;;;15.90;6.78;;;13.30;80.30;;;;;;5014086;28;20048;-76
2022/06/12 03:38:58;;;;;;;14.88;5.63;;;13.30;80.30;;;;;;5019158;28;20045;-75
2022/06/12 03:41:30;;;;;;;18.73;5.82;;;13.40;80.40;;;;;;5008582;28;20042;-75
2022/06/12 03:44:21;;;;;;;15.05;5.35;;;13.40;80.30;;;;;;5007890;28;20470;-76
2022/06/12 03:47:07;;;;;;;20.50;6.50;;;13.40;80.30;;;;;;5007279;28;20183;-76
2022/06/12 03:49:55;;;;;;;17.13;5.57;;;13.40;80.30;;;;;;5008608;28;20209;-75
2022/06/12 03:52:26;;;;;;;16.58;6.00;;;13.40;80.40;;;;;;5009137;28;20096;-75
2022/06/12 03:55:16;;;;;;;16.88;6.80;;;13.40;80.30;;;;;;5010796;28;20030;-75
2022/06/12 03:57:53;;;;;;;18.98;7.45;;;13.40;80.30;;;;;;5010655;28;20030;-77
2022/06/12 04:00:36;;;;;;;18.42;6.95;;;13.30;80.40;;;;;;5007135;28;20034;-76
2022/06/12 04:03:10;;;;;;;15.65;7.35;;;13.40;80.40;;;;;;5012110;28;20029;-76
2022/06/12 04:05:38;;;;;;;18.23;7.25;;;13.40;80.40;;;;;;5002930;28;20042;-76
2022/06/12 04:08:09;;;;;;;21.00;7.07;;;13.40;80.30;;;;;;5008645;28;20041;-76
2022/06/12 04:10:37;;;;;;;20.92;8.65;;;13.50;80.20;;;;;;5008392;28;20038;-76
2022/06/12 04:13:07;;;;;;;21.30;8.02;;;13.50;79.90;;;;;;5005263;28;20038;-76
2022/06/12 04:16:05;;;;;;;21.98;8.23;;;13.60;80.00;;;;;;4999096;28;20038;-76
2022/06/12 04:18:33;;;;;;;17.83;7.32;;;13.60;80.00;;;;;;5006980;28;20377;-76
2022/06/12 04:21:03;;;;;;;19.77;7.72;;;13.70;79.70;;;;;;5011047;28;20041;-76
2022/06/12 04:23:50;;;;;;;18.77;7.25;;;13.70;79.40;;;;;;5013728;28;20046;-75
2022/06/12 04:26:24;;;;;;;17.45;7.18;;;13.70;79.20;;;;;;5008597;28;20500;-74
2022/06/12 04:28:58;;;;;;;22.67;9.07;;;13.80;79.50;;;;;;5000799;28;20054;-76
2022/06/12 04:31:24;;;;;;;21.52;7.82;;;13.80;79.50;;;;;;5008502;28;20751;-76
2022/06/12 04:33:52;;;;;;;23.08;7.80;;;13.90;79.00;;;;;;5003753;28;20125;-76
2022/06/12 04:36:18;;;;;;;17.58;7.53;;;13.90;79.00;;;;;;5013134;28;20042;-76
2022/06/12 04:38:44;;;;;;;20.27;7.38;;;14.00;79.10;;;;;;5009066;28;20029;-76
2022/06/12 04:41:24;;;;;;;19.52;8.00;;;14.10;79.00;;;;;;5000964;28;20065;-75
2022/06/12 04:43:50;;;;;;;21.60;7.43;;;14.10;78.90;;;;;;5004891;28;20551;-76
2022/06/12 04:46:16;;;;;;;18.45;7.15;;;14.10;78.70;;;;;;5007803;28;20041;-76
2022/06/12 04:48:44;;;;;;;22.63;8.13;;;14.10;78.90;;;;;;5015113;28;20061;-76
2022/06/12 04:51:11;;;;;;;22.33;7.80;;;14.20;78.40;;;;;;5008112;28;20042;-75
2022/06/12 04:53:38;;;;;;;18.98;7.05;;;14.30;78.80;;;;;;5006663;28;20133;-75
2022/06/12 04:56:05;;;;;;;20.95;7.55;;;14.30;78.50;;;;;;5006235;28;20492;-76
2022/06/12 04:58:30;;;;;;;21.58;7.63;;;14.50;78.60;;;;;;5007790;28;20026;-75
2022/06/12 05:00:57;;;;;;;18.40;7.75;;;14.50;78.00;;;;;;5007477;28;20033;-76
2022/06/12 05:03:22;;;;;;;19.58;6.82;;;14.60;77.90;;;;;;5007414;28;20406;-76
2022/06/12 05:05:48;;;;;;;21.83;7.60;;;14.60;77.90;;;;;;5009059;28;20064;-76
2022/06/12 05:08:15;;;;;;;20.05;7.55;;;14.90;77.80;;;;;;5007339;28;20036;-76
2022/06/12 05:10:41;;;;;;;20.02;6.72;;;16.00;75.10;;;;;;4998302;28;20133;-76
2022/06/12 05:13:08;;;;;;;16.73;5.90;;;17.40;69.70;;;;;;5010247;28;20869;-77
2022/06/12 05:15:34;;;;;;;17.77;6.35;;;18.40;67.20;;;;;;5013381;28;20034;-76
2022/06/12 05:18:00;;;;;;;17.10;5.55;;;19.60;61.40;;;;;;5009782;28;20040;-76
2022/06/12 05:20:31;;;;;;;18.55;6.18;;;20.50;58.80;;;;;;5006608;28;20030;-76
2022/06/12 05:22:57;;;;;;;17.02;6.97;;;21.20;56.20;;;;;;5003635;28;20424;-76
2022/06/12 05:25:24;;;;;;;15.55;5.93;;;22.10;54.40;;;;;;5003707;28;20046;-76
2022/06/12 05:27:50;;;;;;;19.42;5.50;;;22.10;54.10;;;;;;5005235;28;20037;-76
2022/06/12 05:30:19;;;;;;;17.33;6.40;;;23.00;51.90;;;;;;5005550;28;20029;-76
2022/06/12 05:32:47;;;;;;;15.48;5.55;;;22.90;50.60;;;;;;5004569;28;20041;-76
2022/06/12 05:35:14;;;;;;;14.10;5.40;;;23.20;50.70;;;;;;5009053;28;20072;-76
2022/06/12 05:37:40;;;;;;;14.73;5.90;;;23.50;49.70;;;;;;5002658;28;20134;-76
2022/06/12 05:40:10;;;;;;;15.57;5.85;;;23.60;48.90;;;;;;5001808;28;20203;-76
2022/06/12 05:42:37;;;;;;;19.33;6.35;;;23.60;49.30;;;;;;5002393;28;20053;-75
2022/06/12 05:45:06;;;;;;;15.95;6.30;;;24.00;49.20;;;;;;5002800;28;20048;-75
2022/06/12 05:47:32;;;;;;;21.70;6.82;;;23.90;48.80;;;;;;5006449;28;20040;-76
2022/06/12 05:49:58;;;;;;;19.15;6.57;;;23.70;49.80;;;;;;5005637;28;20033;-76
2022/06/12 05:52:24;;;;;;;18.38;7.10;;;23.20;50.40;;;;;;5005543;28;20136;-76
2022/06/12 05:54:49;;;;;;;22.05;8.50;;;22.40;53.00;;;;;;5008144;28;20038;-76
2022/06/12 05:57:15;;;;;;;21.50;7.15;;;21.40;55.90;;;;;;5007311;28;20034;-75
2022/06/12 05:59:41;;;;;;;20.05;8.00;;;20.60;58.40;;;;;;5002035;28;20520;-76
2022/06/12 06:02:06;;;;;;;19.60;7.70;;;19.80;61.40;;;;;;5011121;28;20444;-77
2022/06/12 06:04:33;;;;;;;21.73;7.88;;;18.90;65.80;;;;;;5003611;28;20051;-76
2022/06/12 06:06:59;;;;;;;21.88;8.27;;;18.60;67.70;;;;;;5003854;28;20052;-76
2022/06/12 06:09:26;;;;;;;22.75;9.18;;;18.50;68.10;;;;;;5003668;28;20072;-76
2022/06/12 06:11:53;;;;;;;21.75;8.65;;;18.20;69.10;;;;;;5002791;28;20141;-76
2022/06/12 06:14:18;;;;;;;22.88;9.55;;;18.20;68.90;;;;;;5006183;28;20112;-76
2022/06/12 06:16:45;;;;;;;19.20;8.15;;;18.10;69.80;;;;;;5008843;28;20136;-76
2022/06/12 06:19:12;;;;;;;21.13;8.75;;;18.20;69.90;;;;;;5010238;28;20773;-76
2022/06/12 06:21:39;;;;;;;24.75;10.13;;;18.20;70.10;;;;;;5009359;28;20054;-74
2022/06/12 06:24:05;;;;;;;23.67;10.15;;;18.30;70.20;;;;;;5004515;28;20039;-78
2022/06/12 06:26:31;;;;;;;21.23;8.68;;;18.30;69.90;;;;;;5005721;28;20068;-76
2022/06/12 06:28:57;;;;;;;23.65;8.25;;;18.40;69.60;;;;;;5009313;28;20493;-76
2022/06/12 06:31:23;;;;;;;23.75;9.50;;;18.50;69.90;;;;;;5021198;28;20038;-76
2022/06/12 06:33:49;;;;;;;22.25;9.15;;;18.60;69.70;;;;;;5013727;28;20094;-76
2022/06/12 06:36:15;;;;;;;24.27;9.38;;;18.60;69.20;;;;;;5002939;28;20057;-75
2022/06/12 06:38:41;;;;;;;25.45;9.20;;;18.80;68.40;;;;;;5001074;28;20337;-76
2022/06/12 06:41:07;;;;;;;28.33;10.18;;;18.60;69.40;;;;;;4996956;28;20474;-76
2022/06/12 06:46:13;;;;;;;21.05;9.80;;;18.50;71.20;;;;;;4994628;28;20045;-76
2022/06/12 06:46:19;;;;;;;23.70;10.43;;;18.60;69.20;;;;;;5003871;28;20053;-75
2022/06/12 06:48:45;;;;;;;25.08;9.93;;;18.60;70.20;;;;;;4996984;28;20042;-76
2022/06/12 06:51:10;;;;;;;28.85;10.85;;;18.70;70.20;;;;;;4995406;28;20446;-76
2022/06/12 06:53:36;;;;;;;26.67;10.75;;;18.60;69.30;;;;;;5003734;28;20049;-75
2022/06/12 06:56:03;;;;;;;22.83;10.32;;;18.90;69.40;;;;;;5001539;28;20375;-76
2022/06/12 06:58:32;;;;;;;24.25;9.50;;;19.10;68.30;;;;;;5023319;28;20034;-76
2022/06/12 07:00:58;;;;;;;21.77;10.75;;;19.20;68.10;;;;;;5030492;28;20405;-76
2022/06/12 07:03:24;;;;;;;21.90;9.93;;;19.20;67.20;;;;;;4993295;28;20069;-76
2022/06/12 07:05:51;;;;;;;26.80;10.05;;;19.40;66.90;;;;;;5004519;28;20078;-77
2022/06/12 07:08:18;;;;;;;19.52;8.60;;;19.40;66.90;;;;;;5004621;28;20394;-77
2022/06/12 07:10:45;;;;;;;26.27;11.38;;;19.40;67.70;;;;;;5002778;28;20400;-75
2022/06/12 07:13:11;;;;;;;25.15;10.82;;;19.50;67.80;;;;;;4993126;28;20043;-77
2022/06/12 07:15:37;;;;;;;19.95;8.52;;;19.80;66.60;;;;;;4994506;28;20041;-75
2022/06/12 07:18:04;;;;;;;19.05;8.52;;;19.90;66.40;;;;;;4994320;28;20474;-75
2022/06/12 07:20:35;;;;;;;23.15;9.52;;;19.90;65.30;;;;;;5005976;28;20072;-74
2022/06/12 07:23:03;;;;;;;18.52;9.20;;;19.90;66.30;;;;;;4993651;28;20038;-77
2022/06/12 07:25:30;;;;;;;21.45;7.80;;;19.80;65.80;;;;;;4993673;28;20389;-76
2022/06/12 07:27:56;;;;;;;18.30;7.50;;;19.70;64.80;;;;;;4993514;28;20051;-74
2022/06/12 07:30:22;;;;;;;19.50;7.05;;;19.50;65.20;;;;;;4996239;28;20077;-76
2022/06/12 07:32:48;;;;;;;18.88;7.28;;;19.50;65.60;;;;;;5001235;28;20520;-74
2022/06/12 07:35:14;;;;;;;22.70;7.95;;;19.60;65.40;;;;;;4998303;28;20497;-75
2022/06/12 07:37:41;;;;;;;16.83;7.05;;;19.70;66.10;;;;;;4998752;28;20034;-77
2022/06/12 07:40:12;;;;;;;14.75;6.82;;;20.00;64.30;;;;;;5004533;28;20560;-76
2022/06/12 07:42:38;;;;;;;18.63;7.32;;;20.20;64.50;;;;;;4997353;28;20034;-77
2022/06/12 07:45:04;;;;;;;17.98;7.55;;;20.10;62.50;;;;;;4998770;28;20072;-77
2022/06/12 07:47:30;;;;;;;17.33;7.50;;;20.00;63.20;;;;;;5009682;28;20137;-77
2022/06/12 07:49:56;;;;;;;25.67;8.32;;;20.30;64.10;;;;;;5004468;28;20569;-77
2022/06/12 07:52:22;;;;;;;18.15;6.80;;;20.60;62.00;;;;;;5002076;28;20366;-77
2022/06/12 07:54:47;;;;;;;17.92;7.85;;;20.60;62.70;;;;;;5005940;28;20121;-77
2022/06/12 07:57:13;;;;;;;17.95;6.78;;;20.30;62.30;;;;;;4999879;28;20129;-76
2022/06/12 07:59:39;;;;;;;20.50;7.22;;;20.60;62.40;;;;;;4995226;28;20058;-75
2022/06/12 08:02:07;;;;;;;16.50;5.95;;;20.60;60.40;;;;;;5000095;28;20068;-76
2022/06/12 08:04:32;;;;;;;16.83;5.72;;;20.80;61.00;;;;;;5006654;28;20046;-77
2022/06/12 08:06:58;;;;;;;17.55;5.28;;;20.70;60.50;;;;;;5008001;28;20048;-76
2022/06/12 08:09:24;;;;;;;16.73;5.78;;;21.00;60.60;;;;;;4999618;28;20061;-76
2022/06/12 08:11:50;;;;;;;16.95;5.88;;;21.00;58.80;;;;;;4992911;28;20038;-77
2022/06/12 08:14:18;;;;;;;17.48;6.10;;;21.10;58.40;;;;;;4990662;28;20502;-76
2022/06/12 08:16:43;;;;;;;14.43;5.53;;;21.10;58.80;;;;;;4998041;28;20067;-76
2022/06/12 08:21:56;;;;;;;10.70;4.70;;;21.50;55.30;;;;;;4995210;28;20065;-76
2022/06/12 08:24:22;;;;;;;15.82;5.20;;;21.70;55.90;;;;;;4996031;28;20041;-77
2022/06/12 08:26:47;;;;;;;16.33;5.70;;;22.00;57.30;;;;;;4987100;28;20100;-76
2022/06/12 08:29:13;;;;;;;18.13;5.80;;;21.70;55.80;;;;;;5000325;28;20085;-77
2022/06/12 08:32:03;;;;;;;15.15;6.13;;;21.60;57.60;;;;;;4999264;28;20050;-77
2022/06/12 08:34:44;;;;;;;16.55;6.82;;;21.60;56.10;;;;;;4995862;28;20508;-76
2022/06/12 08:37:17;;;;;;;20.30;5.95;;;21.80;56.50;;;;;;4999503;28;20117;-75
2022/06/12 08:39:43;;;;;;;14.50;5.43;;;21.80;57.70;;;;;;4993678;28;20034;-75
2022/06/12 08:42:22;;;;;;;14.77;5.60;;;22.00;57.50;;;;;;4999814;28;20091;-73
2022/06/12 08:44:59;;;;;;;15.70;5.18;;;21.80;56.70;;;;;;5001062;28;20221;-75
2022/06/12 08:48:05;;;;;;;16.52;5.13;;;22.00;55.30;;;;;;5005552;28;20038;-75
2022/06/12 08:50:44;;;;;;;13.00;4.90;;;22.60;55.70;;;;;;5000064;28;20034;-74
2022/06/12 08:53:31;;;;;;;13.73;4.60;;;22.70;52.30;;;;;;4995943;28;20069;-74
2022/06/12 08:56:00;;;;;;;11.88;4.20;;;22.90;53.20;;;;;;4997819;28;20099;-74
2022/06/12 08:59:08;;;;;;;12.10;4.50;;;22.20;51.40;;;;;;4995075;28;20145;-73
2022/06/12 09:01:41;;;;;;;13.55;4.32;;;22.20;52.30;;;;;;4992864;28;20117;-73
2022/06/12 09:04:13;;;;;;;14.43;4.70;;;22.40;51.40;;;;;;5003653;28;20027;-74
2022/06/12 09:06:44;;;;;;;12.23;4.38;;;22.70;52.90;;;;;;5005732;28;20804;-74
2022/06/12 09:09:31;;;;;;;11.93;4.20;;;23.10;51.20;;;;;;4997440;28;20077;-75
2022/06/12 09:12:16;;;;;;;13.73;4.03;;;23.10;50.60;;;;;;4995660;28;20057;-74
2022/06/12 09:15:14;;;;;;;13.30;4.25;;;22.90;50.30;;;;;;4994693;28;20496;-73
2022/06/12 09:18:20;;;;;;;13.40;3.72;;;22.70;51.20;;;;;;5004495;28;20121;-75
2022/06/12 09:20:49;;;;;;;;;;;23.10;50.80;;;;;;5002819;28;20041;-74
2022/06/12 09:23:45;;;;;;;12.95;3.40;;;23.30;49.60;;;;;;5003492;28;19917;-74
2022/06/12 09:26:31;;;;;;;10.68;3.10;;;23.10;48.60;;;;;;4998003;28;20060;-72
2022/06/12 09:29:35;;;;;;;11.38;3.50;;;22.90;48.20;;;;;;4996018;28;20042;-75
2022/06/12 09:32:33;;;;;;;11.05;3.47;;;23.10;48.90;;;;;;5000227;28;20052;-76
2022/06/12 09:35:15;;;;;;;12.73;3.85;;;23.10;48.60;;;;;;5002221;28;20133;-73
2022/06/12 09:40:37;;;;;;;10.27;3.58;;;22.50;50.40;;;;;;4996966;28;20056;-74
2022/06/12 09:43:14;;;;;;;11.40;3.78;;;22.30;50.90;;;;;;4995611;28;20025;-73
2022/06/12 09:46:18;;;;;;;14.05;3.38;;;22.40;48.80;;;;;;4992734;28;20053;-73
2022/06/12 09:49:17;;;;;;;10.32;3.50;;;22.60;50.40;;;;;;4991621;28;20046;-73
2022/06/12 09:52:10;;;;;;;12.05;4.10;;;23.10;48.10;;;;;;5001220;28;20045;-73
2022/06/12 09:54:35;;;;;;;11.45;3.75;;;23.40;47.30;;;;;;4993855;28;20066;-79
2022/06/12 09:57:28;;;;;;;9.05;2.88;;;23.30;46.70;;;;;;5009417;28;20133;-74
2022/06/12 10:00:05;;;;;;;12.52;3.17;;;23.70;48.10;;;;;;4993996;28;20085;-75
2022/06/12 10:03:03;;;;;;;10.55;3.53;;;24.10;45.90;;;;;;5003521;28;20034;-74
2022/06/12 10:05:44;;;;;;;11.52;3.00;;;23.60;46.40;;;;;;4988887;28;20053;-76
2022/06/12 10:11:21;;;;;;;9.90;3.25;;;24.20;44.80;;;;;;5103119;27;20138;-75
2022/06/12 10:14:16;;;;;;;9.38;3.35;;;24.40;45.80;;;;;;5087037;28;20095;-74
2022/06/12 10:17:03;;;;;;;8.32;2.65;;;24.20;43.50;;;;;;5107962;27;20043;-76
2022/06/12 10:19:39;;;;;;;7.97;2.55;;;23.70;43.30;;;;;;5096434;28;20031;-74
2022/06/12 10:22:15;;;;;;;9.80;3.17;;;23.20;45.30;;;;;;5093061;27;20096;-76
2022/06/12 10:24:40;;;;;;;9.25;3.13;;;23.50;44.30;;;;;;5095541;27;20543;-75
2022/06/12 10:27:10;;;;;;;8.40;2.88;;;23.90;44.50;;;;;;5070826;27;20067;-76
2022/06/12 10:30:00;;;;;;;8.30;2.72;;;23.70;43.50;;;;;;5072877;28;20100;-76
2022/06/12 10:32:48;;;;;;;8.73;2.72;;;24.30;42.80;;;;;;5081304;28;20650;-75
2022/06/12 10:35:16;;;;;;;10.55;3.00;;;24.90;41.80;;;;;;5092375;27;20044;-75
2022/06/12 10:37:42;;;;;;;9.70;3.00;;;25.10;41.30;;;;;;5096983;27;20356;-75
2022/06/12 10:40:21;;;;;;;7.60;2.65;;;25.10;40.40;;;;;;5099507;27;20036;-76
2022/06/12 10:42:49;;;;;;;8.20;2.50;;;24.70;41.00;;;;;;5116778;27;20035;-75
2022/06/12 10:45:28;;;;;;;12.30;3.50;;;24.50;42.60;;;;;;5115651;27;20047;-76
2022/06/12 10:48:00;;;;;;;9.50;3.13;;;24.40;44.40;;;;;;5102329;27;20063;-75
2022/06/12 10:50:31;;;;;;;6.47;2.78;;;24.40;42.40;;;;;;5095754;27;20114;-75
2022/06/12 10:53:13;;;;;;;8.27;2.95;;;23.90;42.50;;;;;;5094777;27;20445;-76
2022/06/12 10:56:01;;;;;;;11.77;3.45;;;23.90;41.90;;;;;;5111455;27;20118;-76
2022/06/12 10:58:49;;;;;;;9.95;3.10;;;24.00;42.60;;;;;;5097019;27;20040;-75
2022/06/12 11:01:25;;;;;;;9.93;3.83;;;24.40;41.00;;;;;;5108452;27;20551;-75
2022/06/12 11:04:10;;;;;;;9.02;2.90;;;24.10;42.70;;;;;;5092227;27;20052;-75
2022/06/12 11:07:03;;;;;;;6.57;2.70;;;23.40;42.90;;;;;;5091734;27;20471;-75
2022/06/12 11:09:43;;;;;;;8.88;2.67;;;23.50;43.40;;;;;;5097017;27;20073;-76
2022/06/12 11:12:32;;;;;;;9.18;2.63;;;23.70;42.60;;;;;;5095859;27;20036;-76
2022/06/12 11:15:35;;;;;;;5.65;2.00;;;24.10;43.00;;;;;;5093338;27;20032;-76
2022/06/12 11:18:48;;;;;;;6.18;1.90;;;24.30;39.60;;;;;;5073132;27;20332;-77
2022/06/12 11:21:30;;;;;;;5.65;2.33;;;24.30;40.90;;;;;;5005940;28;20038;-73
2022/06/12 11:24:14;;;;;;;6.20;2.05;;;24.70;39.50;;;;;;4981773;28;20034;-76
2022/06/12 11:26:46;;;;;;;;;;;24.90;38.70;;;;;;5051917;28;20034;-75
2022/06/12 11:29:36;;;;;;;8.05;2.38;;;25.50;37.70;;;;;;5076285;28;19916;-74
2022/06/12 11:32:26;;;;;;;7.05;1.83;;;25.80;36.90;;;;;;5081629;28;20326;-75
2022/06/12 11:35:12;;;;;;;8.93;1.83;;;25.00;39.10;;;;;;5082253;28;20496;-76
2022/06/12 11:38:15;;;;;;;5.72;2.25;;;24.50;39.20;;;;;;5078179;28;20542;-76
2022/06/12 11:40:59;;;;;;;8.45;2.25;;;24.10;40.80;;;;;;5066651;28;20028;-75
2022/06/12 11:43:30;;;;;;;8.02;2.72;;;24.00;40.00;;;;;;5081957;28;20039;-75
2022/06/12 11:46:20;;;;;;;6.38;2.00;;;24.20;39.90;;;;;;5063774;28;20149;-73
2022/06/12 11:49:10;;;;;;;8.15;2.20;;;24.40;39.90;;;;;;5084304;28;20032;-73
2022/06/12 11:52:19;;;;;;;6.70;2.22;;;25.00;41.00;;;;;;5086630;28;20109;-73
2022/06/12 11:54:59;;;;;;;7.35;2.22;;;25.00;39.40;;;;;;5066991;27;20055;-76
2022/06/12 11:57:29;;;;;;;7.70;2.05;;;24.80;39.20;;;;;;5082903;27;20487;-73
2022/06/12 12:00:07;;;;;;;6.60;1.85;;;25.20;39.20;;;;;;5080428;28;20072;-73
2022/06/12 12:03:08;;;;;;;7.78;2.08;;;25.50;38.80;;;;;;5084961;28;20042;-73
2022/06/12 12:05:33;;;;;;;7.57;2.40;;;25.80;38.60;;;;;;5081278;28;20130;-73
2022/06/12 12:08:19;;;;;;;5.40;1.75;;;25.40;38.20;;;;;;5082757;28;20048;-74
2022/06/12 12:10:49;;;;;;;7.38;2.17;;;25.20;39.90;;;;;;5082194;28;20058;-73
2022/06/12 12:13:24;;;;;;;7.65;2.17;;;24.80;39.20;;;;;;5079280;28;20032;-75
2022/06/12 12:15:51;;;;;;;;;;;24.90;37.70;;;;;;5082298;28;20036;-75
2022/06/12 12:18:40;;;;;;;5.70;1.90;;;25.30;38.70;;;;;;5080630;28;20492;-75
2022/06/12 12:21:42;;;;;;;5.32;2.00;;;25.80;37.70;;;;;;5077581;28;20040;-75
2022/06/12 12:24:16;;;;;;;7.63;2.25;;;25.90;36.30;;;;;;5068236;28;20036;-75
2022/06/12 12:26:43;;;;;;;5.32;1.90;;;26.10;37.50;;;;;;5064031;28;20442;-72
2022/06/12 12:29:20;;;;;;;6.63;1.83;;;25.20;38.80;;;;;;5082710;28;20040;-75
2022/06/12 12:31:47;;;;;;;7.65;2.08;;;25.40;37.10;;;;;;5064460;28;20458;-75
2022/06/12 12:34:15;;;;;;;6.18;2.00;;;25.60;37.30;;;;;;5081982;27;20036;-75
2022/06/12 12:42:35;;;;;;;7.75;1.98;;;25.10;38.00;;;;;;5080844;28;20059;-74
2022/06/12 12:45:23;;;;;;;5.53;2.00;;;25.60;36.90;;;;;;5084301;28;20040;-76
2022/06/12 12:48:04;;;;;;;8.25;2.67;;;25.00;37.10;;;;;;5082666;28;20043;-75
2022/06/12 12:50:41;;;;;;;6.90;2.08;;;24.20;38.70;;;;;;5078098;28;20509;-74
2022/06/12 12:53:08;;;;;;;6.28;2.03;;;24.10;39.80;;;;;;5082512;28;20071;-75
2022/06/12 12:55:40;;;;;;;7.72;2.65;;;24.30;39.00;;;;;;5083370;28;20035;-74
2022/06/12 12:58:21;;;;;;;7.28;2.08;;;24.60;39.40;;;;;;5083545;28;20085;-74
2022/06/12 13:00:48;;;;;;;6.22;1.95;;;24.80;38.80;;;;;;5078301;28;20105;-76
2022/06/12 13:03:37;;;;;;;7.30;2.20;;;25.00;38.70;;;;;;5083682;27;20329;-74
2022/06/12 13:06:22;;;;;;;7.78;2.45;;;24.80;39.20;;;;;;5082960;28;21099;-75
2022/06/12 13:09:05;;;;;;;7.05;2.15;;;24.10;39.90;;;;;;5077567;27;20037;-75
2022/06/12 13:12:02;;;;;;;8.45;2.63;;;24.40;40.00;;;;;;5082257;28;20059;-75
2022/06/12 13:14:52;;;;;;;8.25;2.17;;;25.00;40.20;;;;;;5081676;28;20040;-76
2022/06/12 13:17:22;;;;;;;7.18;1.80;;;25.10;38.80;;;;;;5081975;28;20048;-74
2022/06/12 13:20:23;;;;;;;9.25;2.33;;;25.20;38.30;;;;;;5080026;28;20044;-76
2022/06/12 13:23:26;;;;;;;4.95;1.63;;;25.10;36.40;;;;;;5050587;28;20043;-74
2022/06/12 13:25:54;;;;;;;5.90;1.80;;;24.40;37.60;;;;;;5080644;28;20047;-76
2022/06/12 13:28:30;;;;;;;5.28;1.40;;;24.60;39.70;;;;;;5076224;28;20032;-75
2022/06/12 13:30:57;;;;;;;6.80;1.70;;;25.00;38.30;;;;;;5063072;28;20413;-76
2022/06/12 13:33:31;;;;;;;5.10;1.42;;;25.40;37.30;;;;;;5063812;28;20411;-75
2022/06/12 13:36:06;;;;;;;4.07;1.57;;;25.10;35.90;;;;;;5082779;28;20064;-75
2022/06/12 13:38:55;;;;;;;3.08;1.30;;;25.10;35.80;;;;;;5082319;28;20036;-75